createdAt,value
2022-08-19T02:36:21.265Z,44.06
2022-08-19T02:38:54.814Z,42.58
2022-08-19T02:41:26.750Z,42.53
2022-08-19T02:44:22.749Z,42.27
2022-08-19T02:46:35.009Z,42.27
2022-08-19T02:49:07.084Z,42.91
2022-08-19T02:51:39.952Z,42.91
2022-08-19T02:54:11.201Z,43.41
2022-08-19T02:56:41.895Z,43.03
2022-08-19T02:59:12.254Z,42.82
2022-08-19T03:01:43.448Z,42.82
2022-08-19T03:04:16.721Z,42.16
2022-08-19T03:06:48.144Z,42.16
2022-08-19T03:09:17.959Z,43.79
2022-08-19T03:11:48.672Z,43.07
2022-08-19T03:14:19.346Z,43.60
2022-08-19T03:16:50.936Z,44.56
2022-08-19T03:19:22.739Z,44.74
2022-08-19T03:21:53.073Z,44.45
2022-08-19T03:24:22.998Z,44.28
2022-08-19T03:26:56.775Z,44.23
2022-08-19T03:29:30.747Z,46.37
2022-08-19T03:31:59.885Z,46.37
2022-08-19T03:34:33.097Z,46.61
2022-08-19T03:37:05.614Z,46.61
2022-08-19T03:39:34.813Z,46.70
2022-08-19T03:42:32.361Z,46.70
2022-08-19T03:44:37.207Z,47.51
2022-08-19T03:47:07.097Z,48.57
2022-08-19T03:49:36.859Z,48.57
2022-08-19T03:52:08.056Z,48.24
2022-08-19T03:54:39.298Z,48.78
2022-08-19T03:57:10.145Z,48.73
2022-08-19T03:59:40.355Z,48.37
2022-08-19T04:02:12.609Z,48.37
2022-08-19T04:04:44.549Z,49.23
2022-08-19T04:07:17.481Z,50.87
2022-08-19T04:09:46.804Z,49.29
2022-08-19T04:12:16.165Z,49.25
2022-08-19T04:14:45.644Z,50.76
2022-08-19T04:17:15.244Z,48.88
2022-08-19T04:19:44.354Z,51.19
2022-08-19T04:22:13.734Z,51.46
2022-08-19T04:24:42.843Z,51.46
2022-08-19T04:27:12.049Z,52.20
2022-08-19T04:29:41.646Z,52.20
2022-08-19T04:32:10.874Z,53.82
2022-08-19T04:35:01.368Z,53.34
2022-08-19T04:37:13.033Z,53.34
2022-08-19T04:40:02.347Z,53.74
2022-08-19T04:42:40.125Z,50.65
2022-08-19T04:45:12.520Z,50.65
2022-08-19T04:47:48.315Z,53.31
2022-08-19T04:50:15.986Z,53.31
2022-08-19T04:52:45.186Z,53.23
2022-08-19T04:55:15.708Z,50.96
2022-08-19T04:57:45.040Z,50.96
2022-08-19T05:00:14.781Z,53.92
2022-08-19T05:02:44.139Z,55.46
2022-08-19T05:05:13.861Z,54.54
2022-08-19T05:07:43.236Z,55.28
2022-08-19T05:10:13.672Z,55.75
2022-08-19T05:12:42.861Z,54.70
2022-08-19T05:15:12.467Z,54.03
2022-08-19T05:17:43.206Z,53.39
2022-08-19T05:20:31.142Z,51.53
2022-08-19T05:23:00.345Z,54.67
2022-08-19T05:25:29.569Z,54.67
2022-08-19T05:27:58.741Z,53.48
2022-08-19T05:30:46.026Z,53.93
2022-08-19T05:32:58.801Z,53.93
2022-08-19T05:35:29.426Z,51.87
2022-08-19T05:38:00.246Z,52.22
2022-08-19T05:40:29.749Z,52.22
2022-08-19T05:42:58.969Z,54.84
2022-08-19T05:45:29.172Z,54.28
2022-08-19T05:47:58.680Z,55.09
2022-08-19T05:50:28.488Z,53.36
2022-08-19T05:52:57.900Z,52.97
2022-08-19T05:55:27.301Z,51.73
2022-08-19T05:57:56.502Z,53.37
2022-08-19T06:00:26.115Z,54.55
2022-08-19T06:02:56.977Z,56.21
2022-08-19T06:05:26.276Z,53.58
2022-08-19T06:07:55.655Z,53.25
2022-08-19T06:10:25.260Z,53.76
2022-08-19T06:12:54.988Z,54.65
2022-08-19T06:15:25.728Z,54.55
2022-08-19T06:17:54.929Z,54.55
2022-08-19T06:20:45.885Z,53.82
2022-08-19T06:22:55.551Z,54.26
2022-08-19T06:25:28.864Z,54.99
2022-08-19T06:28:13.971Z,54.99
2022-08-19T06:30:26.489Z,54.60
2022-08-19T06:32:55.921Z,54.33
2022-08-19T06:35:25.223Z,53.82
2022-08-19T06:37:55.253Z,53.82
2022-08-19T06:40:24.745Z,55.64
2022-08-19T06:42:55.264Z,53.66
2022-08-19T06:45:34.507Z,55.41
2022-08-19T06:47:57.764Z,55.84
2022-08-19T06:50:27.265Z,55.84
2022-08-19T06:52:56.780Z,55.67
2022-08-19T06:55:25.977Z,55.16
2022-08-19T06:57:55.168Z,53.69
2022-08-19T07:00:24.536Z,53.69
2022-08-19T07:02:59.073Z,55.50
2022-08-19T07:05:25.335Z,55.66
2022-08-19T07:07:54.626Z,55.13
2022-08-19T07:10:26.391Z,56.40
2022-08-19T07:12:55.769Z,56.40
2022-08-19T07:15:25.301Z,55.27
2022-08-19T07:17:54.594Z,53.07
2022-08-19T07:20:28.523Z,54.35
2022-08-19T07:22:56.065Z,55.30
2022-08-19T07:25:32.352Z,55.30
2022-08-19T07:27:56.571Z,56.88
2022-08-19T07:30:26.486Z,55.37
2022-08-19T07:32:55.718Z,55.37
2022-08-19T07:35:26.318Z,55.91
2022-08-19T07:37:55.577Z,56.56
2022-08-19T07:40:25.545Z,54.99
2022-08-19T07:42:54.689Z,56.01
2022-08-19T07:45:23.891Z,57.02
2022-08-19T07:47:53.738Z,57.64
2022-08-19T07:50:23.689Z,58.46
2022-08-19T07:52:52.985Z,55.67
2022-08-19T07:55:42.262Z,54.47
2022-08-19T07:57:56.202Z,54.47
2022-08-19T08:00:25.741Z,53.48
2022-08-19T08:02:56.202Z,57.18
2022-08-19T08:05:44.506Z,56.69
2022-08-19T08:08:34.977Z,56.06
2022-08-19T08:11:05.191Z,57.49
2022-08-19T08:13:36.671Z,59.30
2022-08-19T08:16:10.173Z,58.14
2022-08-19T08:18:40.911Z,58.14
2022-08-19T08:21:10.491Z,59.41
2022-08-19T08:23:39.828Z,56.67
2022-08-19T08:26:08.994Z,56.67
2022-08-19T08:28:38.924Z,55.82
2022-08-19T08:31:09.681Z,58.53
2022-08-19T08:33:39.165Z,59.16
2022-08-19T08:36:10.724Z,59.16
2022-08-19T08:38:41.863Z,57.09
2022-08-19T08:41:36.332Z,57.09
2022-08-19T08:44:06.252Z,58.88
2022-08-19T08:46:44.150Z,57.80
2022-08-19T08:49:22.051Z,59.01
2022-08-19T08:52:09.470Z,59.01
2022-08-19T08:54:49.081Z,56.60
2022-08-19T08:57:23.922Z,57.02
2022-08-19T08:59:55.502Z,57.02
2022-08-19T09:02:24.807Z,55.43
2022-08-19T09:04:54.096Z,53.97
2022-08-19T09:07:35.802Z,53.92
2022-08-19T09:10:02.337Z,53.92
2022-08-19T09:12:37.152Z,55.29
2022-08-19T09:15:12.701Z,54.26
2022-08-19T09:17:41.918Z,55.75
2022-08-19T09:20:16.912Z,55.75
2022-08-19T09:22:46.814Z,56.93
2022-08-19T09:25:26.865Z,56.93
2022-08-19T09:27:51.183Z,58.00
2022-08-19T09:30:23.355Z,54.74
2022-08-19T09:32:54.804Z,55.62
2022-08-19T09:35:26.102Z,55.62
2022-08-19T09:37:59.493Z,54.90
2022-08-19T09:40:37.720Z,53.15
2022-08-19T09:43:09.829Z,54.78
2022-08-19T09:45:34.985Z,52.96
2022-08-19T09:48:04.357Z,53.50
2022-08-19T09:50:35.026Z,52.43
2022-08-19T09:53:04.165Z,53.12
2022-08-19T09:55:34.997Z,53.47
2022-08-19T09:58:04.724Z,53.47
2022-08-19T10:00:33.903Z,53.39
2022-08-19T10:03:03.530Z,54.13
2022-08-19T10:05:55.271Z,53.01
2022-08-19T10:08:28.239Z,53.01
2022-08-19T10:10:58.965Z,52.79
2022-08-19T10:13:30.833Z,55.17
2022-08-19T10:16:08.865Z,54.14
2022-08-19T10:18:44.156Z,52.92
2022-08-19T10:21:19.101Z,52.92
2022-08-19T10:23:51.014Z,52.89
2022-08-19T10:26:30.705Z,52.89
2022-08-19T10:29:00.736Z,52.33
2022-08-19T10:32:00.688Z,52.67
2022-08-19T10:34:03.821Z,52.28
2022-08-19T10:36:39.848Z,51.90
2022-08-19T10:39:13.862Z,51.90
2022-08-19T10:41:44.563Z,52.35
2022-08-19T10:44:17.159Z,51.72
2022-08-19T10:46:48.959Z,50.04
2022-08-19T10:49:20.421Z,51.16
2022-08-19T10:52:07.603Z,51.16
2022-08-19T10:54:56.298Z,50.62
2022-08-19T10:57:36.885Z,51.82
2022-08-19T10:59:59.524Z,51.64
2022-08-19T11:02:28.552Z,52.91
2022-08-19T11:05:00.768Z,54.66
2022-08-19T11:07:28.362Z,51.51
2022-08-19T11:09:57.564Z,53.37
2022-08-19T11:12:26.721Z,52.25
2022-08-19T11:14:56.080Z,52.95
2022-08-19T11:17:25.337Z,50.78
2022-08-19T11:19:54.464Z,50.72
2022-08-19T11:22:28.800Z,50.72
2022-08-19T11:24:56.603Z,50.28
2022-08-19T11:27:25.694Z,50.53
2022-08-19T11:29:55.404Z,50.05
2022-08-19T11:32:24.565Z,50.05
2022-08-19T11:34:53.705Z,51.11
2022-08-19T11:37:22.911Z,51.11
2022-08-19T11:39:53.823Z,52.13
2022-08-19T11:42:40.548Z,49.09
2022-08-19T11:45:10.424Z,49.09
2022-08-19T11:47:40.069Z,50.26
2022-08-19T11:50:09.527Z,51.63
2022-08-19T11:52:39.865Z,50.01
2022-08-19T11:55:09.925Z,53.32
2022-08-19T11:57:39.038Z,51.80
2022-08-19T12:00:10.882Z,51.80
2022-08-19T12:02:40.600Z,52.29
2022-08-19T12:05:12.576Z,51.97
2022-08-19T12:07:42.771Z,51.85
2022-08-19T12:10:12.290Z,52.78
2022-08-19T12:12:42.950Z,52.00
2022-08-19T12:15:13.161Z,52.00
2022-08-19T12:17:43.860Z,51.03
2022-08-19T12:20:14.722Z,51.03
2022-08-19T12:22:45.188Z,51.83
2022-08-19T12:25:14.770Z,49.71
2022-08-19T12:27:49.610Z,50.17
2022-08-19T12:30:15.469Z,50.26
2022-08-19T12:32:44.576Z,49.75
2022-08-19T12:35:13.800Z,49.75
2022-08-19T12:37:54.859Z,50.04
2022-08-19T12:40:19.641Z,50.04
2022-08-19T12:42:50.586Z,50.51
2022-08-19T12:45:20.867Z,49.93
2022-08-19T12:47:50.706Z,49.72
2022-08-19T12:50:22.553Z,52.31
2022-08-19T12:52:51.921Z,49.73
2022-08-19T12:55:21.286Z,49.62
2022-08-19T12:57:51.951Z,49.54
2022-08-19T13:00:23.698Z,49.57
2022-08-19T13:02:54.428Z,51.01
2022-08-19T13:05:26.568Z,50.90
2022-08-19T13:07:57.665Z,49.97
2022-08-19T13:10:30.298Z,49.97
2022-08-19T13:13:00.868Z,50.70
2022-08-19T13:15:31.510Z,50.70
2022-08-19T13:18:01.067Z,49.54
2022-08-19T13:20:30.366Z,50.63
2022-08-19T13:22:59.599Z,50.63
2022-08-19T13:25:28.867Z,50.22
2022-08-19T13:27:57.964Z,51.14
2022-08-19T13:30:45.357Z,51.14
2022-08-19T13:33:17.858Z,51.28
2022-08-19T13:35:54.452Z,51.43
2022-08-19T13:38:24.240Z,51.43
2022-08-19T13:40:55.165Z,51.17
2022-08-19T13:43:27.816Z,50.83
2022-08-19T13:45:58.716Z,50.54
2022-08-19T13:48:28.887Z,50.54
2022-08-19T13:50:58.422Z,49.57
2022-08-19T13:53:27.831Z,49.46
2022-08-19T13:55:57.512Z,47.16
2022-08-19T13:58:26.584Z,47.16
2022-08-19T14:00:55.665Z,49.24
2022-08-19T14:03:25.033Z,49.24
2022-08-19T14:05:54.139Z,48.67
2022-08-19T14:08:23.425Z,47.80
2022-08-19T14:10:52.624Z,47.80
2022-08-19T14:13:24.174Z,44.96
2022-08-19T14:15:54.293Z,42.91
2022-08-19T14:18:23.491Z,42.91
2022-08-19T14:20:56.687Z,41.68
2022-08-19T14:23:25.985Z,40.80
2022-08-19T14:25:58.952Z,40.80
2022-08-19T14:28:28.306Z,41.68
2022-08-19T14:30:57.466Z,41.68
2022-08-19T14:33:28.284Z,41.48
2022-08-19T14:36:00.018Z,41.89
2022-08-19T14:38:31.346Z,40.66
2022-08-19T14:41:20.835Z,39.04
2022-08-19T14:43:51.500Z,39.55
2022-08-19T14:46:23.480Z,46.19
2022-08-19T14:48:54.832Z,46.19
2022-08-19T14:51:28.275Z,46.26
2022-08-19T14:53:57.849Z,46.38
2022-08-19T14:56:30.207Z,46.38
2022-08-19T14:59:01.144Z,44.61
2022-08-19T15:01:30.808Z,46.54
2022-08-19T15:04:00.257Z,46.54
2022-08-19T15:06:30.301Z,46.82
2022-08-19T15:09:04.020Z,46.04
2022-08-19T15:11:33.481Z,47.10
2022-08-19T15:14:03.409Z,47.20
2022-08-19T15:16:32.806Z,48.15
2022-08-19T15:19:02.414Z,48.46
2022-08-19T15:21:32.443Z,48.46
2022-08-19T15:24:02.575Z,47.22
2022-08-19T15:26:33.640Z,47.22
2022-08-19T15:29:03.793Z,44.53
2022-08-19T15:31:35.305Z,44.36
2022-08-19T15:34:07.138Z,44.36
2022-08-19T15:36:36.732Z,46.15
2022-08-19T15:39:07.806Z,43.89
2022-08-19T15:41:37.459Z,43.75
2022-08-19T15:44:12.461Z,45.58
2022-08-19T15:46:44.197Z,43.68
2022-08-19T15:49:15.171Z,43.68
2022-08-19T15:51:46.687Z,44.59
2022-08-19T15:54:20.727Z,43.06
2022-08-19T15:57:09.694Z,43.06
2022-08-19T16:00:02.380Z,44.10
2022-08-19T16:02:48.072Z,45.19
2022-08-19T16:05:37.632Z,45.19
2022-08-19T16:08:09.872Z,47.35
2022-08-19T16:10:40.810Z,45.17
2022-08-19T16:13:11.305Z,45.17
2022-08-19T16:15:42.421Z,45.89
2022-08-19T16:18:11.665Z,45.32
2022-08-19T16:20:41.334Z,47.20
2022-08-19T16:23:11.628Z,47.48
2022-08-19T16:25:41.326Z,47.48
2022-08-19T16:28:11.079Z,45.77
2022-08-19T16:30:42.082Z,45.86
2022-08-19T16:33:12.870Z,46.15
2022-08-19T16:35:44.446Z,46.15
2022-08-19T16:38:14.899Z,47.47
2022-08-19T16:40:46.774Z,47.54
2022-08-19T16:43:15.026Z,46.02
2022-08-19T16:45:44.443Z,46.02
2022-08-19T16:48:13.710Z,45.33
2022-08-19T16:50:49.631Z,43.93
2022-08-19T16:53:17.192Z,45.21
2022-08-19T16:55:49.682Z,44.31
2022-08-19T16:58:28.302Z,42.80
2022-08-19T17:01:01.857Z,43.87
2022-08-19T17:03:35.645Z,45.38
2022-08-19T17:06:04.226Z,45.38
2022-08-19T17:08:34.741Z,46.49
2022-08-19T17:11:17.734Z,45.39
2022-08-19T17:13:35.874Z,46.89
2022-08-19T17:16:05.758Z,44.56
2022-08-19T17:18:35.509Z,45.31
2022-08-19T17:21:04.821Z,45.31
2022-08-19T17:23:36.723Z,46.09
2022-08-19T17:26:05.912Z,46.09
2022-08-19T17:28:35.213Z,46.98
2022-08-19T17:31:06.201Z,47.13
2022-08-19T17:33:41.082Z,46.78
2022-08-19T17:36:08.827Z,46.78
2022-08-19T17:38:39.239Z,46.46
2022-08-19T17:41:08.438Z,46.46
2022-08-19T17:43:43.365Z,47.07
2022-08-19T17:46:11.236Z,47.92
2022-08-19T17:48:40.966Z,48.52
2022-08-19T17:51:25.292Z,47.94
2022-08-19T17:53:55.732Z,47.77
2022-08-19T17:56:28.043Z,46.93
2022-08-19T17:59:00.134Z,46.95
2022-08-19T18:01:45.824Z,47.56
2022-08-19T18:04:05.145Z,47.62
2022-08-19T18:06:35.899Z,45.79
2022-08-19T18:09:07.544Z,45.20
2022-08-19T18:11:37.131Z,45.66
2022-08-19T18:14:09.858Z,46.93
2022-08-19T18:16:40.386Z,44.16
2022-08-19T18:19:09.877Z,44.16
2022-08-19T18:21:40.500Z,46.86
2022-08-19T18:24:10.086Z,44.96
2022-08-19T18:26:40.075Z,46.35
2022-08-19T18:29:09.867Z,45.33
2022-08-19T18:31:39.651Z,44.95
2022-08-19T18:34:10.363Z,44.81
2022-08-19T18:36:53.452Z,44.81
2022-08-19T18:39:29.311Z,44.50
2022-08-19T18:42:18.025Z,46.34
2022-08-19T18:45:05.626Z,46.34
2022-08-19T18:47:52.525Z,48.11
2022-08-19T18:50:21.744Z,46.19
2022-08-19T18:52:50.849Z,45.26
2022-08-19T18:55:20.179Z,45.14
2022-08-19T18:57:50.951Z,45.73
2022-08-19T19:00:23.679Z,46.09
2022-08-19T19:02:54.375Z,46.09
2022-08-19T19:05:25.778Z,47.62
2022-08-19T19:07:55.268Z,47.02
2022-08-19T19:10:24.528Z,47.02
2022-08-19T19:12:53.824Z,45.83
2022-08-19T19:15:23.122Z,47.52
2022-08-19T19:17:52.246Z,47.52
2022-08-19T19:20:21.728Z,45.28
2022-08-19T19:22:51.536Z,44.91
2022-08-19T19:25:22.478Z,45.19
2022-08-19T19:27:54.492Z,45.23
2022-08-19T19:30:25.377Z,45.78
2022-08-19T19:32:56.118Z,47.14
2022-08-19T19:35:25.819Z,47.14
2022-08-19T19:37:55.255Z,46.76
2022-08-19T19:40:24.610Z,47.08
2022-08-19T19:42:55.370Z,47.06
2022-08-19T19:45:25.067Z,47.69
2022-08-19T19:47:54.439Z,46.52
2022-08-19T19:50:23.610Z,46.52
2022-08-19T19:52:52.667Z,48.32
2022-08-19T19:55:21.770Z,47.81
2022-08-19T19:57:51.147Z,47.81
2022-08-19T20:00:21.211Z,48.33
2022-08-19T20:02:51.189Z,47.94
2022-08-19T20:05:22.134Z,47.94
2022-08-19T20:08:11.617Z,47.55
2022-08-19T20:10:42.146Z,46.29
2022-08-19T20:13:14.849Z,47.01
2022-08-19T20:15:47.188Z,46.56
2022-08-19T20:18:16.284Z,46.56
2022-08-19T20:20:47.573Z,46.49
2022-08-19T20:23:18.185Z,46.83
2022-08-19T20:25:47.876Z,46.82
2022-08-19T20:28:17.371Z,46.35
2022-08-19T20:30:48.068Z,45.47
2022-08-19T20:33:17.710Z,45.92
2022-08-19T20:35:47.227Z,47.17
2022-08-19T20:38:16.429Z,47.57
2022-08-19T20:40:45.716Z,46.32
2022-08-19T20:43:15.847Z,46.99
2022-08-19T20:45:45.684Z,46.99
2022-08-19T20:48:14.973Z,46.67
2022-08-19T20:50:44.308Z,46.28
2022-08-19T20:53:16.747Z,44.50
2022-08-19T20:55:49.630Z,44.50
2022-08-19T20:58:21.602Z,44.45
2022-08-19T21:00:53.022Z,43.69
2022-08-19T21:03:26.550Z,42.64
2022-08-19T21:05:56.080Z,44.12
2022-08-19T21:08:29.070Z,42.93
2022-08-19T21:10:59.132Z,41.43
2022-08-19T21:13:28.693Z,42.07
2022-08-19T21:15:58.497Z,42.25
2022-08-19T21:18:28.951Z,41.87
2022-08-19T21:21:01.838Z,43.85
2022-08-19T21:23:32.424Z,43.76
2022-08-19T21:26:02.762Z,43.72
2022-08-19T21:28:36.123Z,42.27
2022-08-19T21:31:04.002Z,43.52
2022-08-19T21:33:33.300Z,41.88
2022-08-19T21:36:03.311Z,41.88
2022-08-19T21:38:32.929Z,43.09
2022-08-19T21:41:05.753Z,43.09
2022-08-19T21:43:35.844Z,43.17
2022-08-19T21:46:05.146Z,42.63
2022-08-19T21:48:34.334Z,42.23
2022-08-19T21:51:03.549Z,42.23
2022-08-19T21:53:34.522Z,42.96
2022-08-19T21:56:06.657Z,42.96
2022-08-19T21:58:42.057Z,42.77
2022-08-19T22:01:12.314Z,42.65
2022-08-19T22:03:41.587Z,43.12
2022-08-19T22:06:11.606Z,43.98
2022-08-19T22:08:42.495Z,44.95
2022-08-19T22:11:13.039Z,45.17
2022-08-19T22:13:42.410Z,45.17
2022-08-19T22:16:13.480Z,42.69
2022-08-19T22:18:42.749Z,42.31
2022-08-19T22:21:12.428Z,43.25
2022-08-19T22:23:44.534Z,41.81
2022-08-19T22:26:15.515Z,43.01
2022-08-19T22:28:45.549Z,43.97
2022-08-19T22:31:18.052Z,42.78
2022-08-19T22:33:47.288Z,43.36
2022-08-19T22:36:17.855Z,40.80
2022-08-19T22:38:47.053Z,40.80
2022-08-19T22:41:16.567Z,43.66
2022-08-19T22:43:46.889Z,43.87
2022-08-19T22:46:17.712Z,42.45
2022-08-19T22:48:48.341Z,42.89
2022-08-19T22:51:37.108Z,42.89
2022-08-19T22:54:07.142Z,43.95
2022-08-19T22:56:36.551Z,42.44
2022-08-19T22:59:06.342Z,41.85
2022-08-19T23:01:36.547Z,40.68
2022-08-19T23:04:06.090Z,41.56
2022-08-19T23:06:39.129Z,41.98
2022-08-19T23:09:08.800Z,43.30
2022-08-19T23:11:41.571Z,42.32
2022-08-19T23:14:12.830Z,42.92
2022-08-19T23:16:42.911Z,44.17
2022-08-19T23:19:13.019Z,44.17
2022-08-19T23:21:43.581Z,43.88
2022-08-19T23:24:13.295Z,42.86
2022-08-19T23:26:44.002Z,44.36
2022-08-19T23:29:31.229Z,42.94
2022-08-19T23:32:00.331Z,45.27
2022-08-19T23:34:29.539Z,44.25
2022-08-19T23:36:58.711Z,45.51
2022-08-19T23:39:29.385Z,44.25
2022-08-19T23:41:58.745Z,44.66
2022-08-19T23:44:27.954Z,44.66
2022-08-19T23:46:57.864Z,45.17
2022-08-19T23:49:27.276Z,42.55
2022-08-19T23:51:56.618Z,41.80
2022-08-19T23:54:32.030Z,40.64
2022-08-19T23:56:57.612Z,40.39
2022-08-19T23:59:26.741Z,39.78
